RJST(METAR)
12/11 18:00
METAR RJST 110900Z 01003KT 9999 FEW040 BKN160 03/M02 Q1028 RMK
1SC040 6AC160 A3038=
戻る
トップページへ戻る
IMOC Co,.Ltd.